PWSweather.com
Personal Weather Stations
Station Observations

YeovilGB

Lat: 50.949, Lon: -2.627

Elevation: 70

Station Type: Vantage Pro

http://www.yeovil-weather.me.uk/

High Low Average
Temperature 56.9°F13.8°C 52.5°F11.4°C 55.4°F13.0°C
Dew Point 55.0°F12.8°C 49.9°F9.9°C 53.8°F12.1°C
Winds 10.4 mph 16.7 kmh Calm Calm 3.0 mph SW4.8 kmh SW
Wind Gusts 19.6 mph31.5 kmh -- 8.0 mph12.9 kmh
Humidity 97% 88% 94%
Pressure 29.54 in1000.3 mb 29.42 in996.3 mb -
Precipitation 0.06 in1.5 mm - -
Hour Temp Dew Point Humidity Winds Wind Gusts Pressure Precip Precip Rate Daily Precip Total
12:00 AM 55.5°F13.1°C 54.7°F12.6°C 97% Calm Calm 1.2 mph1.9 kmh 29.43 in996.6 mb - 0.01 in0.3 mm 0.01 in0.3 mm
12:10 AM 55.5°F13.1°C 54.7°F12.6°C 97% 1.2 mph SSW1.9 kmh SSW 2.3 mph3.7 kmh 29.43 in996.6 mb - 0.00 in0.0 mm 0.01 in0.3 mm
12:20 AM 55.5°F13.1°C 54.7°F12.6°C 97% 3.5 mph SSW5.6 kmh SSW 5.8 mph9.3 kmh 29.42 in996.3 mb - 0.00 in0.0 mm 0.01 in0.3 mm
12:30 AM 55.5°F13.1°C 54.7°F12.6°C 97% 2.3 mph SSW3.7 kmh SSW 6.9 mph11.1 kmh 29.43 in996.6 mb - 0.00 in0.0 mm 0.01 in0.3 mm
12:40 AM 55.5°F13.1°C 54.7°F12.6°C 97% 5.8 mph SW9.3 kmh SW 11.5 mph18.5 kmh 29.43 in996.6 mb - 0.00 in0.0 mm 0.01 in0.3 mm
12:50 AM 55.5°F13.1°C 54.4°F12.4°C 96% 1.2 mph SSW1.9 kmh SSW 3.5 mph5.6 kmh 29.42 in996.3 mb - 0.00 in0.0 mm 0.01 in0.3 mm
01:00 AM 55.4°F13.0°C 54.6°F12.6°C 97% 3.5 mph SSW5.6 kmh SSW 5.8 mph9.3 kmh 29.42 in996.3 mb - 0.00 in0.0 mm 0.01 in0.3 mm
01:10 AM 55.4°F13.0°C 54.6°F12.6°C 97% 2.3 mph SSW3.7 kmh SSW 3.5 mph5.6 kmh 29.42 in996.3 mb - 0.00 in0.0 mm 0.01 in0.3 mm
01:20 AM 55.4°F13.0°C 54.6°F12.6°C 97% 4.6 mph SSW7.4 kmh SSW 11.5 mph18.5 kmh 29.43 in996.6 mb - 0.00 in0.0 mm 0.01 in0.3 mm
01:30 AM 55.6°F13.1°C 54.8°F12.7°C 97% 3.5 mph SW5.6 kmh SW 10.4 mph16.7 kmh 29.43 in996.6 mb - 0.00 in0.0 mm 0.01 in0.3 mm
01:40 AM 55.7°F13.2°C 54.9°F12.7°C 97% 4.6 mph SW7.4 kmh SW 11.5 mph18.5 kmh 29.43 in996.6 mb - 0.00 in0.0 mm 0.01 in0.3 mm
01:50 AM 55.7°F13.2°C 54.9°F12.7°C 97% 6.9 mph SSW11.1 kmh SSW 10.4 mph16.7 kmh 29.43 in996.6 mb - 0.00 in0.0 mm 0.01 in0.3 mm
02:00 AM 55.6°F13.1°C 54.8°F12.7°C 97% 2.3 mph SSW3.7 kmh SSW 8.1 mph13.0 kmh 29.42 in996.3 mb - 0.00 in0.0 mm 0.01 in0.3 mm
02:10 AM 55.4°F13.0°C 54.3°F12.4°C 96% 1.2 mph SSW1.9 kmh SSW 11.5 mph18.5 kmh 29.42 in996.3 mb - 0.00 in0.0 mm 0.01 in0.3 mm
02:20 AM 55.4°F13.0°C 54.6°F12.6°C 97% 1.2 mph SSW1.9 kmh SSW 9.2 mph14.8 kmh 29.42 in996.3 mb - 0.00 in0.0 mm 0.01 in0.3 mm
02:30 AM 55.5°F13.1°C 54.6°F12.6°C 97% 1.2 mph SW1.9 kmh SW 5.8 mph9.3 kmh 29.43 in996.6 mb - 0.00 in0.0 mm 0.01 in0.3 mm
02:40 AM 55.6°F13.1°C 54.8°F12.7°C 97% 2.3 mph SW3.7 kmh SW 3.5 mph5.6 kmh 29.43 in996.6 mb - 0.00 in0.0 mm 0.01 in0.3 mm
02:50 AM 55.7°F13.2°C 54.9°F12.7°C 97% 4.6 mph SW7.4 kmh SW 11.5 mph18.5 kmh 29.43 in996.6 mb - 0.00 in0.0 mm 0.01 in0.3 mm
03:00 AM 55.8°F13.2°C 55.0°F12.8°C 97% 4.6 mph SW7.4 kmh SW 12.7 mph20.4 kmh 29.43 in996.6 mb - 0.00 in0.0 mm 0.01 in0.3 mm
03:10 AM 55.8°F13.2°C 55.0°F12.8°C 97% 1.2 mph WSW1.9 kmh WSW 3.5 mph5.6 kmh 29.43 in996.6 mb - 0.00 in0.0 mm 0.01 in0.3 mm
03:20 AM 55.8°F13.2°C 55.0°F12.8°C 97% 5.8 mph SW9.3 kmh SW 11.5 mph18.5 kmh 29.43 in996.6 mb - 0.00 in0.0 mm 0.01 in0.3 mm
03:30 AM 55.7°F13.2°C 54.9°F12.7°C 97% 2.3 mph SW3.7 kmh SW 2.3 mph3.7 kmh 29.43 in996.6 mb - 0.00 in0.0 mm 0.01 in0.3 mm
03:40 AM 55.6°F13.1°C 54.5°F12.5°C 96% 2.3 mph SSW3.7 kmh SSW 5.8 mph9.3 kmh 29.43 in996.6 mb - 0.00 in0.0 mm 0.01 in0.3 mm
03:50 AM 55.6°F13.1°C 54.5°F12.5°C 96% 5.8 mph SW9.3 kmh SW 10.4 mph16.7 kmh 29.43 in996.6 mb - 0.00 in0.0 mm 0.01 in0.3 mm
04:00 AM 55.4°F13.0°C 54.3°F12.4°C 96% 4.6 mph SW7.4 kmh SW 12.7 mph20.4 kmh 29.43 in996.6 mb - 0.00 in0.0 mm 0.01 in0.3 mm
04:10 AM 55.3°F12.9°C 54.2°F12.3°C 96% 6.9 mph SSW11.1 kmh SSW 11.5 mph18.5 kmh 29.44 in997.0 mb - 0.00 in0.0 mm 0.01 in0.3 mm
04:20 AM 55.3°F12.9°C 54.2°F12.3°C 96% 9.2 mph SW14.8 kmh SW 16.1 mph25.9 kmh 29.44 in997.0 mb - 0.00 in0.0 mm 0.01 in0.3 mm
04:30 AM 55.5°F13.1°C 54.1°F12.3°C 95% 5.8 mph SW9.3 kmh SW 12.7 mph20.4 kmh 29.44 in997.0 mb - 0.00 in0.0 mm 0.01 in0.3 mm
04:40 AM 55.6°F13.1°C 54.2°F12.3°C 95% 6.9 mph SW11.1 kmh SW 12.7 mph20.4 kmh 29.45 in997.3 mb - 0.00 in0.0 mm 0.01 in0.3 mm
04:50 AM 55.6°F13.1°C 54.2°F12.3°C 95% Calm Calm -- 29.45 in997.3 mb - 0.00 in0.0 mm 0.01 in0.3 mm
05:00 AM 55.5°F13.1°C 54.1°F12.3°C 95% 2.3 mph SW3.7 kmh SW 8.1 mph13.0 kmh 29.45 in997.3 mb - 0.00 in0.0 mm 0.01 in0.3 mm
05:10 AM 55.5°F13.1°C 54.1°F12.3°C 95% Calm Calm 9.2 mph14.8 kmh 29.46 in997.6 mb - 0.00 in0.0 mm 0.01 in0.3 mm
05:20 AM 55.4°F13.0°C 54.0°F12.2°C 95% Calm Calm 4.6 mph7.4 kmh 29.45 in997.3 mb - 0.00 in0.0 mm 0.01 in0.3 mm
05:30 AM 55.4°F13.0°C 54.0°F12.2°C 95% 4.6 mph SSW7.4 kmh SSW 11.5 mph18.5 kmh 29.45 in997.3 mb - 0.00 in0.0 mm 0.01 in0.3 mm
05:40 AM 55.4°F13.0°C 54.0°F12.2°C 95% 4.6 mph SW7.4 kmh SW 12.7 mph20.4 kmh 29.46 in997.6 mb - 0.00 in0.0 mm 0.01 in0.3 mm
05:50 AM 55.4°F13.0°C 54.0°F12.2°C 95% 1.2 mph SSW1.9 kmh SSW 8.1 mph13.0 kmh 29.46 in997.6 mb - 0.00 in0.0 mm 0.01 in0.3 mm
06:00 AM 55.4°F13.0°C 54.0°F12.2°C 95% 6.9 mph SW11.1 kmh SW 13.8 mph22.2 kmh 29.46 in997.6 mb - 0.00 in0.0 mm 0.01 in0.3 mm
06:10 AM 55.4°F13.0°C 54.0°F12.2°C 95% 3.5 mph SSW5.6 kmh SSW 9.2 mph14.8 kmh 29.47 in998.0 mb - 0.00 in0.0 mm 0.01 in0.3 mm
06:20 AM 55.4°F13.0°C 54.0°F12.2°C 95% 2.3 mph SW3.7 kmh SW 6.9 mph11.1 kmh 29.47 in998.0 mb - 0.00 in0.0 mm 0.01 in0.3 mm
06:30 AM 55.3°F12.9°C 53.9°F12.2°C 95% 2.3 mph SW3.7 kmh SW 8.1 mph13.0 kmh 29.47 in998.0 mb - 0.00 in0.0 mm 0.01 in0.3 mm
06:40 AM 55.3°F12.9°C 54.2°F12.3°C 96% 6.9 mph SSW11.1 kmh SSW 11.5 mph18.5 kmh 29.47 in998.0 mb - 0.00 in0.0 mm 0.01 in0.3 mm
06:50 AM 55.3°F12.9°C 54.2°F12.3°C 96% 6.9 mph SSW11.1 kmh SSW 11.5 mph18.5 kmh 29.47 in998.0 mb - 0.00 in0.0 mm 0.01 in0.3 mm
07:00 AM 55.3°F12.9°C 54.2°F12.3°C 96% Calm Calm -- 29.47 in998.0 mb - 0.00 in0.0 mm 0.01 in0.3 mm
07:10 AM 55.2°F12.9°C 54.1°F12.3°C 96% Calm Calm 5.8 mph9.3 kmh 29.48 in998.3 mb - 0.01 in0.3 mm 0.01 in0.3 mm
07:20 AM 55.2°F12.9°C 54.1°F12.3°C 96% 1.2 mph SW1.9 kmh SW -- 29.48 in998.3 mb - 0.00 in0.0 mm 0.01 in0.3 mm
07:30 AM 55.1°F12.8°C 54.0°F12.2°C 96% Calm Calm -- 29.48 in998.3 mb - 0.00 in0.0 mm 0.01 in0.3 mm
07:40 AM 55.2°F12.9°C 54.0°F12.2°C 96% 1.2 mph SSW1.9 kmh SSW 6.9 mph11.1 kmh 29.48 in998.3 mb - 0.00 in0.0 mm 0.01 in0.3 mm
07:50 AM 55.1°F12.8°C 54.0°F12.2°C 96% 1.2 mph SW1.9 kmh SW 5.8 mph9.3 kmh 29.48 in998.3 mb - 0.00 in0.0 mm 0.01 in0.3 mm
08:00 AM 55.0°F12.8°C 53.9°F12.2°C 96% Calm Calm 1.2 mph1.9 kmh 29.48 in998.3 mb - 0.00 in0.0 mm 0.01 in0.3 mm
08:10 AM 54.8°F12.7°C 53.7°F12.1°C 96% 1.2 mph SSW1.9 kmh SSW 5.8 mph9.3 kmh 29.49 in998.6 mb - 0.00 in0.0 mm 0.01 in0.3 mm
08:20 AM 54.9°F12.7°C 53.8°F12.1°C 96% 2.3 mph SW3.7 kmh SW 6.9 mph11.1 kmh 29.49 in998.6 mb - 0.00 in0.0 mm 0.01 in0.3 mm
08:30 AM 55.0°F12.8°C 53.9°F12.2°C 96% 5.8 mph SSW9.3 kmh SSW 10.4 mph16.7 kmh 29.50 in999.0 mb - 0.00 in0.0 mm 0.01 in0.3 mm
08:40 AM 55.1°F12.8°C 54.0°F12.2°C 96% 4.6 mph SW7.4 kmh SW 6.9 mph11.1 kmh 29.49 in998.6 mb - 0.00 in0.0 mm 0.01 in0.3 mm
08:50 AM 55.3°F12.9°C 54.1°F12.3°C 96% 2.3 mph SW3.7 kmh SW 9.2 mph14.8 kmh 29.50 in999.0 mb - 0.00 in0.0 mm 0.01 in0.3 mm
09:00 AM 55.3°F12.9°C 53.9°F12.2°C 95% 3.5 mph SW5.6 kmh SW 5.8 mph9.3 kmh 29.50 in999.0 mb - 0.00 in0.0 mm 0.01 in0.3 mm
09:10 AM 55.4°F13.0°C 54.0°F12.2°C 95% 5.8 mph SW9.3 kmh SW 12.7 mph20.4 kmh 29.50 in999.0 mb - 0.00 in0.0 mm 0.01 in0.3 mm
09:20 AM 55.4°F13.0°C 53.7°F12.1°C 94% 10.4 mph SSW16.7 kmh SSW 19.6 mph31.5 kmh 29.51 in999.3 mb - 0.00 in0.0 mm 0.01 in0.3 mm
09:30 AM 55.2°F12.9°C 52.9°F11.6°C 92% 6.9 mph SSW11.1 kmh SSW 16.1 mph25.9 kmh 29.51 in999.3 mb - 0.00 in0.0 mm 0.01 in0.3 mm
09:40 AM 55.3°F12.9°C 52.7°F11.5°C 91% Calm Calm 4.6 mph7.4 kmh 29.51 in999.3 mb - 0.00 in0.0 mm 0.01 in0.3 mm
09:50 AM 55.4°F13.0°C 52.8°F11.6°C 91% 1.2 mph SW1.9 kmh SW 5.8 mph9.3 kmh 29.52 in999.7 mb - 0.00 in0.0 mm 0.01 in0.3 mm
10:00 AM 55.6°F13.1°C 53.0°F11.7°C 91% 1.2 mph SSW1.9 kmh SSW 6.9 mph11.1 kmh 29.52 in999.7 mb - 0.00 in0.0 mm 0.01 in0.3 mm
10:10 AM 55.7°F13.2°C 52.8°F11.6°C 90% 2.3 mph SW3.7 kmh SW 12.7 mph20.4 kmh 29.52 in999.7 mb - 0.00 in0.0 mm 0.01 in0.3 mm
10:20 AM 55.9°F13.3°C 52.7°F11.5°C 89% 6.9 mph SW11.1 kmh SW 11.5 mph18.5 kmh 29.53 in1000.0 mb - 0.00 in0.0 mm 0.01 in0.3 mm
10:30 AM 56.0°F13.3°C 52.8°F11.6°C 89% Calm Calm 1.2 mph1.9 kmh 29.53 in1000.0 mb - 0.00 in0.0 mm 0.01 in0.3 mm
10:40 AM 56.2°F13.4°C 53.0°F11.7°C 89% 1.2 mph SW1.9 kmh SW 8.1 mph13.0 kmh 29.52 in999.7 mb - 0.00 in0.0 mm 0.01 in0.3 mm
10:50 AM 56.5°F13.6°C 53.0°F11.7°C 88% Calm Calm 4.6 mph7.4 kmh 29.52 in999.7 mb - 0.00 in0.0 mm 0.01 in0.3 mm
11:00 AM 56.7°F13.7°C 53.2°F11.8°C 88% 4.6 mph SW7.4 kmh SW 11.5 mph18.5 kmh 29.52 in999.7 mb - 0.00 in0.0 mm 0.01 in0.3 mm
11:10 AM 56.8°F13.8°C 53.3°F11.8°C 88% 3.5 mph SW5.6 kmh SW 8.1 mph13.0 kmh 29.52 in999.7 mb - 0.00 in0.0 mm 0.01 in0.3 mm
11:20 AM 56.8°F13.8°C 53.6°F12.0°C 89% 4.6 mph SSW7.4 kmh SSW 8.1 mph13.0 kmh 29.52 in999.7 mb - 0.00 in0.0 mm 0.01 in0.3 mm
11:30 AM 56.8°F13.8°C 53.9°F12.2°C 90% 2.3 mph SW3.7 kmh SW 2.3 mph3.7 kmh 29.52 in999.7 mb - 0.00 in0.0 mm 0.01 in0.3 mm
11:40 AM 56.9°F13.8°C 54.3°F12.4°C 91% 4.6 mph SSW7.4 kmh SSW 10.4 mph16.7 kmh 29.52 in999.7 mb - 0.00 in0.0 mm 0.01 in0.3 mm
11:50 AM 56.9°F13.8°C 54.3°F12.4°C 91% 5.8 mph SSW9.3 kmh SSW 10.4 mph16.7 kmh 29.52 in999.7 mb - 0.00 in0.0 mm 0.01 in0.3 mm
12:00 PM 56.7°F13.7°C 54.4°F12.4°C 92% 4.6 mph SW7.4 kmh SW 16.1 mph25.9 kmh 29.52 in999.7 mb - 0.00 in0.0 mm 0.01 in0.3 mm
12:10 PM 56.5°F13.6°C 54.2°F12.3°C 92% 6.9 mph SW11.1 kmh SW 15.0 mph24.1 kmh 29.52 in999.7 mb - 0.00 in0.0 mm 0.01 in0.3 mm
12:20 PM 56.4°F13.6°C 54.1°F12.3°C 92% 2.3 mph SSW3.7 kmh SSW 8.1 mph13.0 kmh 29.52 in999.7 mb - 0.00 in0.0 mm 0.01 in0.3 mm
12:30 PM 56.3°F13.5°C 54.3°F12.4°C 93% 1.2 mph SW1.9 kmh SW 4.6 mph7.4 kmh 29.52 in999.7 mb - 0.00 in0.0 mm 0.01 in0.3 mm
12:40 PM 56.3°F13.5°C 54.3°F12.4°C 93% 1.2 mph SW1.9 kmh SW 5.8 mph9.3 kmh 29.52 in999.7 mb - 0.00 in0.0 mm 0.01 in0.3 mm
12:50 PM 56.4°F13.6°C 54.4°F12.4°C 93% Calm Calm 5.8 mph9.3 kmh 29.51 in999.3 mb - 0.00 in0.0 mm 0.01 in0.3 mm
01:00 PM 56.6°F13.7°C 54.6°F12.6°C 93% 2.3 mph SW3.7 kmh SW 9.2 mph14.8 kmh 29.51 in999.3 mb - 0.00 in0.0 mm 0.01 in0.3 mm
01:10 PM 56.7°F13.7°C 54.4°F12.4°C 92% 3.5 mph SSW5.6 kmh SSW 10.4 mph16.7 kmh 29.50 in999.0 mb - 0.00 in0.0 mm 0.01 in0.3 mm
01:20 PM 56.8°F13.8°C 54.2°F12.3°C 91% 3.5 mph SW5.6 kmh SW 19.6 mph31.5 kmh 29.50 in999.0 mb - 0.00 in0.0 mm 0.01 in0.3 mm
01:30 PM 56.7°F13.7°C 54.1°F12.3°C 91% 4.6 mph SSW7.4 kmh SSW 11.5 mph18.5 kmh 29.50 in999.0 mb - 0.00 in0.0 mm 0.01 in0.3 mm
01:40 PM 56.5°F13.6°C 53.9°F12.2°C 91% 3.5 mph SW5.6 kmh SW 8.1 mph13.0 kmh 29.50 in999.0 mb - 0.00 in0.0 mm 0.01 in0.3 mm
01:50 PM 56.5°F13.6°C 54.2°F12.3°C 92% 3.5 mph SSW5.6 kmh SSW 9.2 mph14.8 kmh 29.50 in999.0 mb - 0.00 in0.0 mm 0.01 in0.3 mm
02:00 PM 56.5°F13.6°C 54.2°F12.3°C 92% 4.6 mph S7.4 kmh S 15.0 mph24.1 kmh 29.50 in999.0 mb - 0.00 in0.0 mm 0.01 in0.3 mm
02:10 PM 56.4°F13.6°C 54.4°F12.4°C 93% 8.1 mph S13.0 kmh S 15.0 mph24.1 kmh 29.49 in998.6 mb - 0.00 in0.0 mm 0.01 in0.3 mm
02:20 PM 56.3°F13.5°C 54.3°F12.4°C 93% 3.5 mph SSW5.6 kmh SSW 9.2 mph14.8 kmh 29.48 in998.3 mb - 0.00 in0.0 mm 0.01 in0.3 mm
02:30 PM 56.2°F13.4°C 54.2°F12.3°C 93% 3.5 mph SSW5.6 kmh SSW 9.2 mph14.8 kmh 29.48 in998.3 mb - 0.00 in0.0 mm 0.01 in0.3 mm
02:40 PM 56.2°F13.4°C 54.2°F12.3°C 93% 1.2 mph S1.9 kmh S 5.8 mph9.3 kmh 29.48 in998.3 mb - 0.00 in0.0 mm 0.01 in0.3 mm
02:50 PM 56.2°F13.4°C 54.5°F12.5°C 94% Calm Calm 4.6 mph7.4 kmh 29.49 in998.6 mb - 0.00 in0.0 mm 0.01 in0.3 mm
03:00 PM 56.3°F13.5°C 54.6°F12.6°C 94% 3.5 mph SSW5.6 kmh SSW 11.5 mph18.5 kmh 29.49 in998.6 mb - 0.00 in0.0 mm 0.01 in0.3 mm
03:10 PM 56.3°F13.5°C 54.3°F12.4°C 93% 3.5 mph S5.6 kmh S 10.4 mph16.7 kmh 29.49 in998.6 mb - 0.00 in0.0 mm 0.01 in0.3 mm
03:20 PM 56.3°F13.5°C 54.3°F12.4°C 93% 3.5 mph SSW5.6 kmh SSW 11.5 mph18.5 kmh 29.49 in998.6 mb - 0.00 in0.0 mm 0.01 in0.3 mm
03:30 PM 56.3°F13.5°C 54.6°F12.6°C 94% 1.2 mph SSW1.9 kmh SSW 6.9 mph11.1 kmh 29.49 in998.6 mb - 0.00 in0.0 mm 0.01 in0.3 mm
03:40 PM 56.2°F13.4°C 54.5°F12.5°C 94% 3.5 mph SSW5.6 kmh SSW 12.7 mph20.4 kmh 29.49 in998.6 mb - 0.00 in0.0 mm 0.01 in0.3 mm
03:50 PM 56.1°F13.4°C 54.4°F12.4°C 94% 2.3 mph S3.7 kmh S 4.6 mph7.4 kmh 29.49 in998.6 mb - 0.00 in0.0 mm 0.01 in0.3 mm
04:00 PM 56.1°F13.4°C 54.4°F12.4°C 94% 4.6 mph S7.4 kmh S 9.2 mph14.8 kmh 29.48 in998.3 mb - 0.00 in0.0 mm 0.01 in0.3 mm
04:10 PM 56.1°F13.4°C 54.1°F12.3°C 93% 1.2 mph SSW1.9 kmh SSW 4.6 mph7.4 kmh 29.48 in998.3 mb - 0.00 in0.0 mm 0.01 in0.3 mm
04:20 PM 56.1°F13.4°C 54.1°F12.3°C 93% 3.5 mph S5.6 kmh S 8.1 mph13.0 kmh 29.48 in998.3 mb - 0.00 in0.0 mm 0.01 in0.3 mm
04:30 PM 56.1°F13.4°C 54.4°F12.4°C 94% 3.5 mph SSW5.6 kmh SSW 9.2 mph14.8 kmh 29.48 in998.3 mb - 0.00 in0.0 mm 0.01 in0.3 mm
04:40 PM 56.0°F13.3°C 54.3°F12.4°C 94% 2.3 mph S3.7 kmh S 9.2 mph14.8 kmh 29.49 in998.6 mb - 0.00 in0.0 mm 0.01 in0.3 mm
04:50 PM 55.8°F13.2°C 54.1°F12.3°C 94% Calm Calm -- 29.49 in998.6 mb - 0.00 in0.0 mm 0.01 in0.3 mm
05:00 PM 55.7°F13.2°C 54.0°F12.2°C 94% 3.5 mph SSW5.6 kmh SSW 9.2 mph14.8 kmh 29.49 in998.6 mb - 0.01 in0.3 mm 0.02 in0.5 mm
05:10 PM 55.5°F13.1°C 54.1°F12.3°C 95% 2.3 mph SSW3.7 kmh SSW 6.9 mph11.1 kmh 29.48 in998.3 mb - 0.00 in0.0 mm 0.02 in0.5 mm
05:20 PM 55.5°F13.1°C 54.1°F12.3°C 95% 5.8 mph SW9.3 kmh SW 10.4 mph16.7 kmh 29.48 in998.3 mb - 0.00 in0.0 mm 0.02 in0.5 mm
05:30 PM 55.5°F13.1°C 54.1°F12.3°C 95% 3.5 mph SSW5.6 kmh SSW 11.5 mph18.5 kmh 29.48 in998.3 mb - 0.00 in0.0 mm 0.02 in0.5 mm
05:40 PM 55.6°F13.1°C 54.2°F12.3°C 95% 1.2 mph SW1.9 kmh SW 4.6 mph7.4 kmh 29.48 in998.3 mb - 0.00 in0.0 mm 0.02 in0.5 mm
05:50 PM 55.6°F13.1°C 54.2°F12.3°C 95% 4.6 mph SSW7.4 kmh SSW 10.4 mph16.7 kmh 29.48 in998.3 mb - 0.01 in0.3 mm 0.02 in0.5 mm
06:00 PM 55.6°F13.1°C 54.5°F12.5°C 96% 3.5 mph SSW5.6 kmh SSW 11.5 mph18.5 kmh 29.48 in998.3 mb - 0.01 in0.3 mm 0.02 in0.5 mm
06:10 PM 55.6°F13.1°C 54.5°F12.5°C 96% 4.6 mph SW7.4 kmh SW 12.7 mph20.4 kmh 29.49 in998.6 mb - 0.00 in0.0 mm 0.02 in0.5 mm
06:20 PM 55.3°F12.9°C 53.9°F12.2°C 95% 2.3 mph SSW3.7 kmh SSW 8.1 mph13.0 kmh 29.49 in998.6 mb - 0.00 in0.0 mm 0.02 in0.5 mm
06:30 PM 55.2°F12.9°C 53.8°F12.1°C 95% Calm Calm 1.2 mph1.9 kmh 29.49 in998.6 mb - 0.00 in0.0 mm 0.02 in0.5 mm
06:40 PM 55.2°F12.9°C 53.8°F12.1°C 95% 1.2 mph SW1.9 kmh SW 12.7 mph20.4 kmh 29.49 in998.6 mb - 0.00 in0.0 mm 0.02 in0.5 mm
06:50 PM 55.1°F12.8°C 53.7°F12.1°C 95% 6.9 mph SW11.1 kmh SW 12.7 mph20.4 kmh 29.49 in998.6 mb - 0.00 in0.0 mm 0.02 in0.5 mm
07:00 PM 55.2°F12.9°C 53.5°F11.9°C 94% 2.3 mph SW3.7 kmh SW 8.1 mph13.0 kmh 29.50 in999.0 mb - 0.00 in0.0 mm 0.02 in0.5 mm
07:10 PM 55.2°F12.9°C 53.5°F11.9°C 94% 5.8 mph SSW9.3 kmh SSW 11.5 mph18.5 kmh 29.50 in999.0 mb - 0.00 in0.0 mm 0.02 in0.5 mm
07:20 PM 55.2°F12.9°C 53.7°F12.1°C 95% 6.9 mph SW11.1 kmh SW 11.5 mph18.5 kmh 29.50 in999.0 mb - 0.01 in0.3 mm 0.03 in0.8 mm
07:30 PM 55.0°F12.8°C 53.6°F12.0°C 95% 3.5 mph SW5.6 kmh SW 13.8 mph22.2 kmh 29.50 in999.0 mb - 0.01 in0.3 mm 0.04 in1.0 mm
07:40 PM 54.7°F12.6°C 53.3°F11.8°C 95% 1.2 mph SW1.9 kmh SW 5.8 mph9.3 kmh 29.50 in999.0 mb - 0.00 in0.0 mm 0.04 in1.0 mm
07:50 PM 54.8°F12.7°C 53.4°F11.9°C 95% 2.3 mph SSW3.7 kmh SSW 13.8 mph22.2 kmh 29.50 in999.0 mb - 0.00 in0.0 mm 0.04 in1.0 mm
08:10 PM 54.5°F12.5°C 53.1°F11.7°C 95% Calm Calm 2.3 mph3.7 kmh 29.51 in999.3 mb - 0.01 in0.3 mm 0.05 in1.3 mm
08:20 PM 54.6°F12.6°C 53.5°F11.9°C 96% 1.2 mph SSW1.9 kmh SSW 6.9 mph11.1 kmh 29.50 in999.0 mb - 0.01 in0.3 mm 0.06 in1.5 mm
08:30 PM 54.5°F12.5°C 53.1°F11.7°C 95% 2.3 mph SW3.7 kmh SW 10.4 mph16.7 kmh 29.50 in999.0 mb - 0.00 in0.0 mm 0.06 in1.5 mm
08:40 PM 54.4°F12.4°C 53.0°F11.7°C 95% 2.3 mph SW3.7 kmh SW 3.5 mph5.6 kmh 29.50 in999.0 mb - 0.00 in0.0 mm 0.06 in1.5 mm
08:50 PM 54.4°F12.4°C 53.0°F11.7°C 95% 2.3 mph SW3.7 kmh SW 6.9 mph11.1 kmh 29.51 in999.3 mb - 0.00 in0.0 mm 0.06 in1.5 mm
09:00 PM 54.4°F12.4°C 53.0°F11.7°C 95% Calm Calm 4.6 mph7.4 kmh 29.51 in999.3 mb - 0.00 in0.0 mm 0.06 in1.5 mm
09:10 PM 54.3°F12.4°C 52.9°F11.6°C 95% 1.2 mph S1.9 kmh S 6.9 mph11.1 kmh 29.51 in999.3 mb - 0.00 in0.0 mm 0.06 in1.5 mm
09:20 PM 54.2°F12.3°C 52.8°F11.6°C 95% 1.2 mph SW1.9 kmh SW -- 29.51 in999.3 mb - 0.00 in0.0 mm 0.06 in1.5 mm
09:30 PM 54.2°F12.3°C 52.8°F11.6°C 95% 3.5 mph SW5.6 kmh SW 4.6 mph7.4 kmh 29.51 in999.3 mb - 0.01 in0.3 mm 0.06 in1.5 mm
09:40 PM 54.1°F12.3°C 52.7°F11.5°C 95% Calm Calm 5.8 mph9.3 kmh 29.52 in999.7 mb - 0.00 in0.0 mm 0.06 in1.5 mm
09:50 PM 54.0°F12.2°C 52.6°F11.4°C 95% 1.2 mph SW1.9 kmh SW 6.9 mph11.1 kmh 29.52 in999.7 mb - 0.00 in0.0 mm 0.06 in1.5 mm
10:00 PM 53.7°F12.1°C 52.3°F11.3°C 95% 1.2 mph S1.9 kmh S -- 29.52 in999.7 mb - 0.00 in0.0 mm 0.06 in1.5 mm
10:10 PM 53.4°F11.9°C 52.0°F11.1°C 95% 3.5 mph SSW5.6 kmh SSW 5.8 mph9.3 kmh 29.52 in999.7 mb - 0.00 in0.0 mm 0.06 in1.5 mm
10:20 PM 53.2°F11.8°C 51.8°F11.0°C 95% 5.8 mph SW9.3 kmh SW 6.9 mph11.1 kmh 29.52 in999.7 mb - 0.00 in0.0 mm 0.06 in1.5 mm
10:30 PM 53.0°F11.7°C 51.3°F10.7°C 94% 6.9 mph SW11.1 kmh SW 10.4 mph16.7 kmh 29.52 in999.7 mb - 0.00 in0.0 mm 0.06 in1.5 mm
10:40 PM 53.0°F11.7°C 51.3°F10.7°C 94% 3.5 mph SSW5.6 kmh SSW 11.5 mph18.5 kmh 29.52 in999.7 mb - 0.00 in0.0 mm 0.06 in1.5 mm
10:50 PM 52.9°F11.6°C 50.9°F10.5°C 93% 5.8 mph SW9.3 kmh SW 9.2 mph14.8 kmh 29.52 in999.7 mb - 0.00 in0.0 mm 0.06 in1.5 mm
11:00 PM 52.8°F11.6°C 50.5°F10.3°C 92% 4.6 mph SW7.4 kmh SW 11.5 mph18.5 kmh 29.53 in1000.0 mb - 0.00 in0.0 mm 0.06 in1.5 mm
11:10 PM 52.8°F11.6°C 50.5°F10.3°C 92% 2.3 mph SSW3.7 kmh SSW 6.9 mph11.1 kmh 29.53 in1000.0 mb - 0.00 in0.0 mm 0.06 in1.5 mm
11:20 PM 52.8°F11.6°C 50.2°F10.1°C 91% 4.6 mph SSW7.4 kmh SSW 6.9 mph11.1 kmh 29.53 in1000.0 mb - 0.00 in0.0 mm 0.06 in1.5 mm
11:30 PM 52.7°F11.5°C 50.1°F10.1°C 91% 3.5 mph SW5.6 kmh SW 6.9 mph11.1 kmh 29.54 in1000.3 mb - 0.00 in0.0 mm 0.06 in1.5 mm
11:40 PM 52.6°F11.4°C 50.0°F10.0°C 91% 3.5 mph SSW5.6 kmh SSW 10.4 mph16.7 kmh 29.54 in1000.3 mb - 0.00 in0.0 mm 0.06 in1.5 mm
11:50 PM 52.5°F11.4°C 49.9°F9.9°C 91% 2.3 mph SSW3.7 kmh SSW 5.8 mph9.3 kmh 29.54 in1000.3 mb - 0.00 in0.0 mm 0.06 in1.5 mm